createdAt,value
2018-12-23T00:00:12.341Z,96110.55
2018-12-23T00:02:40.556Z,96112.05
2018-12-23T00:05:11.577Z,96112.81
2018-12-23T00:07:39.020Z,96109.64
2018-12-23T00:10:08.310Z,96113.35
2018-12-23T00:12:36.554Z,96111.11
2018-12-23T00:15:06.364Z,96113.87
2018-12-23T00:17:34.584Z,96111.38
2018-12-23T00:20:03.779Z,96113.05
2018-12-23T00:22:31.991Z,96123.84
2018-12-23T00:25:00.398Z,96138.84
2018-12-23T00:27:28.635Z,96139.02
2018-12-23T00:29:56.843Z,96134.33
2018-12-23T00:32:25.090Z,96143.98
2018-12-23T00:34:53.507Z,96143.35
2018-12-23T00:37:21.720Z,96154.99
2018-12-23T00:39:50.063Z,96160.18
2018-12-23T00:42:18.292Z,96171.41
2018-12-23T00:44:46.605Z,96159.73
2018-12-23T00:47:14.831Z,96168.00
2018-12-23T00:49:43.117Z,96173.06
2018-12-23T00:52:11.459Z,96165.55
2018-12-23T00:54:39.815Z,96173.61
2018-12-23T00:57:08.040Z,96169.16
2018-12-23T00:59:36.255Z,96160.97
2018-12-23T01:02:04.522Z,96177.06
2018-12-23T01:04:32.819Z,96170.33
2018-12-23T01:07:01.123Z,96186.17
2018-12-23T01:09:29.338Z,96182.54
2018-12-23T01:11:57.968Z,96187.97
2018-12-23T01:14:26.292Z,96192.40
2018-12-23T01:16:54.519Z,96182.39
2018-12-23T01:19:22.787Z,96187.43
2018-12-23T01:21:51.012Z,96198.31
2018-12-23T01:24:19.217Z,96200.58
2018-12-23T01:26:47.467Z,96201.80
2018-12-23T01:29:15.694Z,96204.52
2018-12-23T01:31:43.974Z,96215.76
2018-12-23T01:34:12.297Z,96208.80
2018-12-23T01:36:40.548Z,96210.41
2018-12-23T01:39:08.751Z,96215.61
2018-12-23T01:41:36.967Z,96213.31
2018-12-23T01:44:05.176Z,96216.70
2018-12-23T01:46:33.471Z,96230.68
2018-12-23T01:49:01.711Z,96231.86
2018-12-23T01:51:29.972Z,96233.87
2018-12-23T01:53:58.243Z,96230.77
2018-12-23T01:56:26.475Z,96232.89
2018-12-23T01:58:54.662Z,96229.27
2018-12-23T02:01:22.971Z,96233.03
2018-12-23T02:03:51.211Z,96233.84
2018-12-23T02:06:19.464Z,96236.36
2018-12-23T02:08:47.799Z,96241.55
2018-12-23T02:11:16.080Z,96235.48
2018-12-23T02:13:44.289Z,96231.80
2018-12-23T02:16:12.496Z,96230.38
2018-12-23T02:18:40.717Z,96229.15
2018-12-23T02:21:09.288Z,96229.27
2018-12-23T02:23:37.560Z,96227.49
2018-12-23T02:26:05.798Z,96221.58
2018-12-23T02:28:34.032Z,96228.97
2018-12-23T02:31:02.281Z,96227.05
2018-12-23T02:33:30.533Z,96225.36
2018-12-23T02:35:58.753Z,96230.77
2018-12-23T02:38:26.979Z,96229.20
2018-12-23T02:40:55.251Z,96232.38
2018-12-23T02:43:23.582Z,96234.31
2018-12-23T02:45:51.835Z,96238.00
2018-12-23T02:48:20.063Z,96237.72
2018-12-23T02:50:48.314Z,96231.94
2018-12-23T02:53:16.787Z,96234.08
2018-12-23T02:55:45.119Z,96234.53
2018-12-23T02:58:13.375Z,96225.30
2018-12-23T03:00:41.713Z,96227.79
2018-12-23T03:03:10.010Z,96222.68
2018-12-23T03:05:38.343Z,96224.07
2018-12-23T03:08:06.690Z,96226.67
2018-12-23T03:10:35.017Z,96219.48
2018-12-23T03:13:03.332Z,96217.45
2018-12-23T03:15:31.682Z,96220.08
2018-12-23T03:17:59.939Z,96231.31
2018-12-23T03:20:28.343Z,96222.17
2018-12-23T03:22:56.804Z,96227.47
2018-12-23T03:25:25.039Z,96225.12
2018-12-23T03:27:53.347Z,96220.59
2018-12-23T03:30:21.565Z,96229.84
2018-12-23T03:32:49.943Z,96222.58
2018-12-23T03:35:18.228Z,96224.47
2018-12-23T03:37:46.665Z,96227.27
2018-12-23T03:40:14.876Z,96229.20
2018-12-23T03:42:43.088Z,96224.24
2018-12-23T03:45:11.332Z,96231.69
2018-12-23T03:47:39.550Z,96220.96
2018-12-23T03:50:07.821Z,96229.62
2018-12-23T03:52:36.032Z,96239.80
2018-12-23T03:55:04.416Z,96235.98
2018-12-23T03:57:32.631Z,96227.98
2018-12-23T04:00:00.855Z,96218.78
2018-12-23T04:02:29.100Z,96225.89
2018-12-23T04:04:57.520Z,96232.00
2018-12-23T04:07:25.724Z,96240.34
2018-12-23T04:09:54.055Z,96251.44
2018-12-23T04:12:22.484Z,96261.11
2018-12-23T04:14:51.051Z,96255.64
2018-12-23T04:17:19.313Z,96251.51
2018-12-23T04:19:47.556Z,96243.75
2018-12-23T04:22:15.820Z,96244.80
2018-12-23T04:24:44.037Z,96249.58
2018-12-23T04:27:12.382Z,96247.01
2018-12-23T04:29:41.259Z,96254.33
2018-12-23T04:32:09.743Z,96261.81
2018-12-23T04:34:38.038Z,96257.22
2018-12-23T04:37:06.283Z,96260.77
2018-12-23T04:39:34.508Z,96252.69
2018-12-23T04:42:02.874Z,96267.34
2018-12-23T04:44:31.165Z,96258.33
2018-12-23T04:46:59.444Z,96258.26
2018-12-23T04:49:27.723Z,96263.75
2018-12-23T04:51:55.931Z,96275.77
2018-12-23T04:54:24.299Z,96265.36
2018-12-23T04:56:52.515Z,96270.09
2018-12-23T04:59:20.821Z,96264.69
2018-12-23T05:01:49.175Z,96273.72
2018-12-23T05:04:17.383Z,96269.35
2018-12-23T05:06:45.616Z,96267.21
2018-12-23T05:09:13.836Z,96263.58
2018-12-23T05:11:42.157Z,96263.12
2018-12-23T05:14:10.483Z,96254.71
2018-12-23T05:16:38.731Z,96250.05
2018-12-23T05:19:06.966Z,96259.36
2018-12-23T05:21:35.188Z,96259.58
2018-12-23T05:24:03.659Z,96259.13
2018-12-23T05:26:31.885Z,96256.23
2018-12-23T05:29:00.208Z,96265.20
2018-12-23T05:31:28.795Z,96270.28
2018-12-23T05:33:57.075Z,96281.59
2018-12-23T05:36:25.348Z,96271.77
2018-12-23T05:38:53.564Z,96274.73
2018-12-23T05:41:21.771Z,96278.06
2018-12-23T05:43:50.082Z,96267.98
2018-12-23T05:46:18.377Z,96282.50
2018-12-23T05:48:46.730Z,96278.03
2018-12-23T05:51:15.007Z,96281.17
2018-12-23T05:53:43.279Z,96280.63
2018-12-23T05:56:11.655Z,96289.44
2018-12-23T05:58:39.979Z,96282.05
2018-12-23T06:01:08.212Z,96298.02
2018-12-23T06:03:36.483Z,96304.66
2018-12-23T06:06:04.777Z,96307.86
2018-12-23T06:08:33.009Z,96316.81
2018-12-23T06:11:01.311Z,96315.84
2018-12-23T06:13:29.628Z,96320.49
2018-12-23T06:15:57.871Z,96315.42
2018-12-23T06:18:26.117Z,96322.92
2018-12-23T06:20:54.434Z,96324.63
2018-12-23T06:23:22.671Z,96324.91
2018-12-23T06:25:50.973Z,96333.08
2018-12-23T06:28:19.195Z,96329.73
2018-12-23T06:30:47.490Z,96327.59
2018-12-23T06:33:15.791Z,96327.08
2018-12-23T06:35:44.045Z,96327.98
2018-12-23T06:38:12.360Z,96329.77
2018-12-23T06:40:40.582Z,96331.38
2018-12-23T06:43:08.910Z,96342.90
2018-12-23T06:45:37.151Z,96332.94
2018-12-23T06:48:05.567Z,96337.95
2018-12-23T06:50:33.788Z,96325.23
2018-12-23T06:53:02.018Z,96316.81
2018-12-23T06:55:30.426Z,96324.92
2018-12-23T06:57:58.754Z,96334.28
2018-12-23T07:00:27.048Z,96334.46
2018-12-23T07:02:55.287Z,96333.50
2018-12-23T07:05:23.529Z,96329.14
2018-12-23T07:07:51.890Z,96333.66
2018-12-23T07:10:20.168Z,96327.05
2018-12-23T07:12:48.488Z,96335.33
2018-12-23T07:15:16.827Z,96342.59
2018-12-23T07:17:45.183Z,96346.95
2018-12-23T07:20:13.404Z,96348.91
2018-12-23T07:22:41.726Z,96348.91
2018-12-23T07:25:10.115Z,96347.16
2018-12-23T07:27:38.499Z,96364.04
2018-12-23T07:30:07.487Z,96345.73
2018-12-23T07:32:35.875Z,96352.62
2018-12-23T07:35:04.891Z,96349.36
2018-12-23T07:37:33.243Z,96351.41
2018-12-23T07:40:01.497Z,96352.38
2018-12-23T07:42:29.822Z,96360.41
2018-12-23T07:44:58.068Z,96351.48
2018-12-23T07:47:26.541Z,96343.59
2018-12-23T07:49:54.855Z,96350.52
2018-12-23T07:52:23.105Z,96346.75
2018-12-23T07:54:51.479Z,96347.89
2018-12-23T07:57:19.710Z,96354.31
2018-12-23T07:59:47.949Z,96362.07
2018-12-23T08:02:16.302Z,96357.11
2018-12-23T08:04:44.536Z,96359.73
2018-12-23T08:07:12.811Z,96364.17
2018-12-23T08:09:41.027Z,96357.20
2018-12-23T08:12:09.302Z,96353.86
2018-12-23T08:14:37.535Z,96345.28
2018-12-23T08:17:06.263Z,96349.81
2018-12-23T08:19:34.490Z,96353.27
2018-12-23T08:22:02.763Z,96356.06
2018-12-23T08:24:30.971Z,96358.67
2018-12-23T08:26:59.262Z,96358.86
2018-12-23T08:29:27.564Z,96367.02
2018-12-23T08:31:55.808Z,96366.84
2018-12-23T08:34:24.064Z,96377.58
2018-12-23T08:36:57.217Z,96371.88
2018-12-23T08:39:25.454Z,96365.60
2018-12-23T08:41:53.731Z,96362.80
2018-12-23T08:44:22.022Z,96368.35
2018-12-23T08:46:50.251Z,96363.12
2018-12-23T08:49:18.463Z,96357.80
2018-12-23T08:51:46.668Z,96351.34
2018-12-23T08:54:14.916Z,96364.31
2018-12-23T08:56:43.183Z,96357.66
2018-12-23T08:59:11.435Z,96357.43
2018-12-23T09:01:39.635Z,96361.28
2018-12-23T09:04:07.875Z,96363.75
2018-12-23T09:06:36.198Z,96364.26
2018-12-23T09:09:05.620Z,96361.80
2018-12-23T09:11:33.977Z,96354.49
2018-12-23T09:14:02.349Z,96351.69
2018-12-23T09:16:30.720Z,96353.11
2018-12-23T09:18:58.973Z,96349.20
2018-12-23T09:21:27.183Z,96350.02
2018-12-23T09:23:55.428Z,96342.99
2018-12-23T09:26:23.623Z,96348.48
2018-12-23T09:28:51.839Z,96351.91
2018-12-23T09:31:20.056Z,96354.17
2018-12-23T09:33:48.270Z,96345.91
2018-12-23T09:36:16.481Z,96349.98
2018-12-23T09:38:44.689Z,96349.89
2018-12-23T09:41:12.920Z,96346.29
2018-12-23T09:43:41.142Z,96338.16
2018-12-23T09:46:09.401Z,96333.70
2018-12-23T09:48:37.648Z,96328.23
2018-12-23T09:51:05.874Z,96325.42
2018-12-23T09:53:34.255Z,96321.23
2018-12-23T09:56:02.481Z,96320.99
2018-12-23T09:58:30.698Z,96311.36
2018-12-23T10:00:58.896Z,96315.08
2018-12-23T10:03:27.160Z,96308.55
2018-12-23T10:05:55.448Z,96307.13
2018-12-23T10:08:23.724Z,96311.80
2018-12-23T10:10:51.969Z,96308.31
2018-12-23T10:13:20.271Z,96309.91
2018-12-23T10:15:48.504Z,96317.98
2018-12-23T10:18:16.711Z,96320.14
2018-12-23T10:20:44.970Z,96311.31
2018-12-23T10:23:13.207Z,96302.30
2018-12-23T10:25:41.590Z,96304.64
2018-12-23T10:28:09.865Z,96288.72
2018-12-23T10:30:38.080Z,96288.14
2018-12-23T10:33:06.286Z,96288.61
2018-12-23T10:35:34.508Z,96284.56
2018-12-23T10:38:02.835Z,96273.37
2018-12-23T10:40:31.272Z,96274.81
2018-12-23T10:43:01.362Z,96273.61
2018-12-23T10:45:29.816Z,96262.78
2018-12-23T10:47:58.175Z,96256.66
2018-12-23T10:50:26.442Z,96242.95
2018-12-23T10:52:54.667Z,96241.95
2018-12-23T10:55:22.973Z,96232.92
2018-12-23T10:57:51.264Z,96220.65
2018-12-23T11:00:19.688Z,96217.08
2018-12-23T11:02:47.999Z,96217.59
2018-12-23T11:05:16.345Z,96221.74
2018-12-23T11:07:44.582Z,96213.91
2018-12-23T11:10:12.874Z,96206.13
2018-12-23T11:12:41.274Z,96191.03
2018-12-23T11:15:09.515Z,96201.08
2018-12-23T11:17:37.791Z,96193.88
2018-12-23T11:20:08.287Z,96190.76
2018-12-23T11:22:36.620Z,96196.22
2018-12-23T11:25:05.343Z,96204.92
2018-12-23T11:27:33.624Z,96188.14
2018-12-23T11:30:01.900Z,96185.48
2018-12-23T11:32:30.232Z,96191.16
2018-12-23T11:34:58.503Z,96182.45
2018-12-23T11:37:26.783Z,96178.70
2018-12-23T11:39:55.041Z,96178.75
2018-12-23T11:42:23.280Z,96165.35
2018-12-23T11:44:51.549Z,96170.74
2018-12-23T11:47:19.799Z,96155.44
2018-12-23T11:49:48.307Z,96140.52
2018-12-23T11:52:16.639Z,96144.60
2018-12-23T11:54:45.115Z,96130.59
2018-12-23T11:57:13.396Z,96132.99
2018-12-23T11:59:41.790Z,96130.08
2018-12-23T12:02:15.226Z,96136.53
2018-12-23T12:04:40.317Z,96128.95
2018-12-23T12:07:08.616Z,96124.80
2018-12-23T12:09:36.928Z,96119.29
2018-12-23T12:12:05.218Z,96121.44
2018-12-23T12:14:33.471Z,96121.50
2018-12-23T12:17:01.752Z,96122.66
2018-12-23T12:19:30.024Z,96122.95
2018-12-23T12:21:58.355Z,96119.14
2018-12-23T12:24:26.586Z,96115.73
2018-12-23T12:26:54.859Z,96115.92
2018-12-23T12:29:23.080Z,96105.89
2018-12-23T12:31:51.355Z,96105.89
2018-12-23T12:34:19.669Z,96104.98
2018-12-23T12:36:47.888Z,96099.84
2018-12-23T12:39:16.181Z,96095.60
2018-12-23T12:41:44.464Z,96084.92
2018-12-23T12:44:12.693Z,96092.79
2018-12-23T12:46:41.072Z,96084.39
2018-12-23T12:49:09.318Z,96080.02
2018-12-23T12:51:37.572Z,96074.30
2018-12-23T12:54:05.924Z,96084.88
2018-12-23T12:56:34.275Z,96065.11
2018-12-23T12:59:02.496Z,96067.71
2018-12-23T13:01:30.771Z,96059.62
2018-12-23T13:03:59.129Z,96056.77
2018-12-23T13:06:27.483Z,96057.58
2018-12-23T13:09:00.517Z,96052.25
2018-12-23T13:11:26.006Z,96049.61
2018-12-23T13:13:54.255Z,96051.70
2018-12-23T13:16:22.510Z,96051.80
2018-12-23T13:18:50.813Z,96053.16
2018-12-23T13:21:19.183Z,96041.12
2018-12-23T13:23:47.494Z,96035.09
2018-12-23T13:26:15.850Z,96029.68
2018-12-23T13:28:44.170Z,96031.92
2018-12-23T13:31:12.492Z,96024.88
2018-12-23T13:33:40.783Z,96028.75
2018-12-23T13:36:09.145Z,96020.93
2018-12-23T13:38:37.370Z,96015.48
2018-12-23T13:41:15.234Z,96015.21
2018-12-23T13:44:05.914Z,96010.25
2018-12-23T13:50:50.896Z,96002.91
2018-12-23T13:54:00.726Z,95952.38
2018-12-23T13:57:28.389Z,95998.47
2018-12-23T14:00:55.933Z,95995.95
2018-12-23T14:04:05.734Z,95941.63
2018-12-23T14:07:33.295Z,95934.45
2018-12-23T14:11:00.858Z,96008.54
2018-12-23T14:13:49.782Z,95997.28
2018-12-23T14:16:38.663Z,95959.92
2018-12-23T14:19:27.589Z,95989.70
2018-12-23T14:22:16.451Z,95991.55
2018-12-23T14:25:24.549Z,95997.77
2018-12-23T14:28:13.421Z,95964.17
2018-12-23T14:31:02.295Z,96000.02
2018-12-23T14:33:32.003Z,95991.68
2018-12-23T14:36:20.883Z,95987.59
2018-12-23T14:39:09.763Z,95933.63
2018-12-23T14:41:58.638Z,95964.58
2018-12-23T14:44:47.504Z,95956.05
2018-12-23T14:47:36.390Z,95957.23
2018-12-23T14:50:25.259Z,95958.22
2018-12-23T14:53:14.143Z,95949.97
2018-12-23T14:56:03.053Z,95862.41
2018-12-23T14:58:51.926Z,95909.19
2018-12-23T15:01:40.864Z,95910.63
2018-12-23T15:04:29.729Z,95924.98
2018-12-23T15:07:11.605Z,95879.78
2018-12-23T15:10:00.531Z,95915.09
2018-12-23T15:12:49.476Z,95891.45
2018-12-23T15:15:38.360Z,95906.88
2018-12-23T15:18:27.215Z,95895.83
2018-12-23T15:21:16.122Z,95890.98
2018-12-23T15:24:05.969Z,95852.52
2018-12-23T15:26:55.585Z,95883.48
2018-12-23T15:29:44.449Z,95881.09
2018-12-23T15:32:33.319Z,95882.86
2018-12-23T15:35:22.227Z,95873.62
2018-12-23T15:38:03.757Z,95848.95
2018-12-23T15:40:52.653Z,95867.74
2018-12-23T15:43:41.527Z,95809.78
2018-12-23T15:46:30.395Z,95837.88
2018-12-23T15:49:19.257Z,95841.88
2018-12-23T15:52:08.122Z,95832.49
2018-12-23T15:54:57.017Z,95828.23
2018-12-23T15:57:45.897Z,95802.35
2018-12-23T16:00:34.747Z,95785.31
2018-12-23T16:03:23.639Z,95773.48
2018-12-23T16:06:12.499Z,95711.13
2018-12-23T16:09:01.371Z,95753.17
2018-12-23T16:11:50.257Z,95712.77
2018-12-23T16:14:39.411Z,95749.25
2018-12-23T16:17:28.393Z,95742.78
2018-12-23T16:20:17.265Z,95734.45
2018-12-23T16:23:06.192Z,95645.97
2018-12-23T16:25:55.065Z,95720.74
2018-12-23T16:28:43.956Z,95713.48
2018-12-23T16:31:32.875Z,95704.26
2018-12-23T16:34:21.749Z,95708.27
2018-12-23T16:37:10.660Z,95709.84
2018-12-23T16:39:59.386Z,95704.79
2018-12-23T16:42:42.851Z,95696.61
2018-12-23T16:45:31.721Z,95687.47
2018-12-23T16:48:20.654Z,95687.36
2018-12-23T16:51:09.513Z,95674.00
2018-12-23T16:53:58.388Z,95674.00
2018-12-23T16:56:47.317Z,95598.72
2018-12-23T16:59:36.181Z,95654.81
2018-12-23T17:02:25.095Z,95649.73
2018-12-23T17:05:13.988Z,95622.95
2018-12-23T17:08:02.871Z,95640.13
2018-12-23T17:10:51.736Z,95579.36
2018-12-23T17:13:40.608Z,95598.83
2018-12-23T17:16:29.487Z,95630.22
2018-12-23T17:19:18.360Z,95635.41
2018-12-23T17:22:07.262Z,95627.40
2018-12-23T17:24:56.129Z,95620.80
2018-12-23T17:27:45.010Z,95618.53
2018-12-23T17:30:33.886Z,95615.30
2018-12-23T17:33:22.813Z,95608.20
2018-12-23T17:36:30.704Z,95607.91
2018-12-23T17:39:12.229Z,95523.83
2018-12-23T17:42:01.101Z,95586.80
2018-12-23T17:44:49.959Z,95559.70
2018-12-23T17:47:38.856Z,95582.05
2018-12-23T17:50:27.768Z,95573.30
2018-12-23T17:53:16.592Z,95574.96
2018-12-23T17:58:34.580Z,95561.06
2018-12-23T18:01:23.434Z,95521.16
2018-12-23T18:04:12.304Z,95551.92
2018-12-23T18:10:10.576Z,95545.74
2018-12-23T18:12:59.425Z,95508.98
2018-12-23T18:15:48.348Z,95541.72
2018-12-23T18:18:37.256Z,95538.45
2018-12-23T18:21:26.142Z,95502.27
2018-12-23T18:24:15.053Z,95525.22
2018-12-23T18:27:03.919Z,95521.74
2018-12-23T18:29:52.786Z,95516.22
2018-12-23T18:32:41.718Z,95479.92
2018-12-23T18:35:30.589Z,95519.03
2018-12-23T18:38:19.499Z,95464.36
2018-12-23T18:41:08.376Z,95510.16
2018-12-23T18:43:57.277Z,95504.92
2018-12-23T18:46:46.153Z,95546.36
2018-12-23T18:49:35.023Z,95513.14
2018-12-23T18:52:23.918Z,95414.89
2018-12-23T18:55:12.787Z,95477.64
2018-12-23T18:58:01.708Z,95459.58
2018-12-23T19:04:18.989Z,95429.16
2018-12-23T19:07:07.868Z,95476.94
2018-12-23T19:13:51.126Z,95478.41
2018-12-23T19:17:00.899Z,95456.52
2018-12-23T19:23:43.824Z,95462.41
2018-12-23T19:27:11.424Z,95410.94
2018-12-23T19:30:21.294Z,95462.51
2018-12-23T19:33:31.061Z,95459.36
2018-12-23T19:36:40.951Z,95466.58
2018-12-23T19:39:24.202Z,95396.92
2018-12-23T19:42:34.068Z,95403.52
2018-12-23T19:46:01.679Z,95456.28
2018-12-23T19:49:29.249Z,95457.61
2018-12-23T19:52:56.809Z,95488.06
2018-12-23T19:56:24.372Z,95417.84
2018-12-23T19:59:51.978Z,95444.15
2018-12-23T20:03:19.579Z,95444.77
2018-12-23T20:06:47.128Z,95443.37
2018-12-23T20:09:56.948Z,95448.77
2018-12-23T20:13:24.529Z,95458.95
2018-12-23T20:16:34.359Z,95446.20
2018-12-23T20:20:01.992Z,95426.22
2018-12-23T20:23:11.772Z,95437.45
2018-12-23T20:26:21.586Z,95440.51
2018-12-23T20:29:31.416Z,95394.09
2018-12-23T20:32:41.243Z,95438.95
2018-12-23T20:36:08.863Z,95439.44
2018-12-23T20:39:36.424Z,95422.32
2018-12-23T20:42:46.216Z,95445.65
2018-12-23T20:46:13.787Z,95428.34
2018-12-23T20:49:41.356Z,95356.63
2018-12-23T20:53:08.926Z,95422.05
2018-12-23T20:56:36.577Z,95357.68
2018-12-23T20:59:46.452Z,95425.92
2018-12-23T21:02:32.746Z,95445.11
2018-12-23T21:05:42.532Z,95421.92
2018-12-23T21:08:52.402Z,95415.89
2018-12-23T21:12:02.187Z,95422.70
2018-12-23T21:15:29.808Z,95367.37
2018-12-23T21:18:39.652Z,95363.14
2018-12-23T21:21:49.497Z,95390.48
2018-12-23T21:25:17.098Z,95434.72
2018-12-23T21:28:26.882Z,95382.97
2018-12-23T21:31:54.451Z,95417.08
2018-12-23T21:35:22.016Z,95418.41
2018-12-23T21:38:31.869Z,95416.64
2018-12-23T21:41:59.488Z,95411.56
2018-12-23T21:45:27.091Z,95420.67
2018-12-23T21:48:54.658Z,95422.84
2018-12-23T21:52:22.238Z,95407.13
2018-12-23T21:55:32.099Z,95421.27
2018-12-23T21:58:41.899Z,95412.97
2018-12-23T22:02:09.508Z,95399.93
2018-12-23T22:05:37.126Z,95393.52
2018-12-23T22:08:46.951Z,95401.21
2018-12-23T22:11:56.806Z,95368.02
2018-12-23T22:14:45.677Z,95401.59
2018-12-23T22:17:34.616Z,95388.19
2018-12-23T22:20:42.530Z,95356.17
2018-12-23T22:23:31.405Z,95369.23
2018-12-23T22:26:20.293Z,95306.27
2018-12-23T22:29:09.163Z,95309.44
2018-12-23T22:31:58.062Z,95367.72
2018-12-23T22:34:46.931Z,95353.13
2018-12-23T22:40:30.064Z,95375.73
2018-12-23T22:43:18.967Z,95316.27
2018-12-23T22:46:07.869Z,95365.34
2018-12-23T22:48:56.872Z,95351.65
2018-12-23T22:51:45.735Z,95287.83
2018-12-23T22:57:44.009Z,95354.89
2018-12-23T23:03:25.483Z,95310.09
2018-12-23T23:06:14.366Z,95337.02
2018-12-23T23:12:12.612Z,95338.16
2018-12-23T23:15:01.486Z,95321.31
2018-12-23T23:17:50.406Z,95309.33
2018-12-23T23:20:39.256Z,95297.25
2018-12-23T23:23:29.869Z,95290.09
2018-12-23T23:26:18.785Z,95275.37
2018-12-23T23:29:26.773Z,95234.84
2018-12-23T23:32:34.724Z,95270.33
2018-12-23T23:35:23.661Z,95285.55
2018-12-23T23:38:12.647Z,95261.20
2018-12-23T23:41:01.507Z,95242.78
2018-12-23T23:43:50.395Z,95248.66
2018-12-23T23:46:39.312Z,95175.06
2018-12-23T23:49:28.188Z,95243.86
2018-12-23T23:52:17.079Z,95233.47
2018-12-23T23:55:05.948Z,95185.25
2018-12-23T23:57:54.832Z,95181.00
